Aeroporto :
LOGIN :

Iscrizione | Disclaimer

   EN    FR    IT 

 










Sommario :    VFR   VFR Marginale   IFR   IFR Intensivo   IFR Molto Intensivo
Visibilità : 
Base nubi : 
>= 8 km
>= 3000ft
5 / 8 km
1000 / 3000 ft
1500m / 5 km
500 / 1000 ft
800 / 1500m
200 / 500 ft
< 800m
< 200 ft
Simboli :   Temporali  Nebbia  Neve Forte  Precipitazioni Forti  Vento > 20 kt
SIGMETs :   Varie  Temporali  Ghiacco  Turbolenza  Onda orograficha  Ceneri Vulcaniche






- Altitudine del aeroporto : 247 ft
- Codice IATA : BLL


EKBI - Billund

ULTIMO METAR :
  • 220050Z AUTO 22018G35KT 6000 RA OVC009/// 07/06 Q1006

METARs OBSOLETI :
  • 212250Z AUTO 22019G30KT 2000 RA OVC007/// 07/06 Q1008
  • 212220Z AUTO 22017KT 2500 RA OVC006/// 07/06 Q1009

TAF AMD TAF EKBI
Valido dal 21 a 19 ore il 22 a 18 ore UTC


211922Z 2119/2218 25018G30KT 9999 BKN012
TEMPO 2119/2206 2500 -RADZ BKN006
TEMPO 2206/2210 23025G50KT 4000 RADZ BKN005
TEMPO 2210/2218 23025G40KT SHRA SCT020CB



MetMap, La meteo Aeronautica in un colpo d'occhio ! - Copyright ORBIFLY Dicembre 2007 - Disclaimer

ORBIFLY MET'MAP TEAM :

Programmazione e sviluppo : Alexandra Zaïnal
Concezione : Baudouin d'Aumeries
Aiuto per la programmazione : Marc-Olivier Méhu
Supporto tecnico e logistico : Manuel Goepfert
Aiuto per la traduzione : Arnaldo La Scala

Contatto : metmap@orbifly.com




FONTI E CREDITI :

   NOAA